sensor_id;sensor_type;location;lat;lon;timestamp;P1;durP1;ratioP1;P2;durP2;ratioP2
12900;SDS011;6518;50.930;5.344;2023-04-08T00:01:49;11.50;;;5.80;;
12900;SDS011;6518;50.930;5.344;2023-04-08T00:04:17;10.07;;;5.40;;
12900;SDS011;6518;50.930;5.344;2023-04-08T00:06:45;15.93;;;6.03;;
12900;SDS011;6518;50.930;5.344;2023-04-08T00:09:12;14.80;;;5.90;;
12900;SDS011;6518;50.930;5.344;2023-04-08T00:11:38;11.90;;;5.90;;
12900;SDS011;6518;50.930;5.344;2023-04-08T00:14:05;9.17;;;5.33;;
12900;SDS011;6518;50.930;5.344;2023-04-08T00:16:32;14.47;;;6.30;;
12900;SDS011;6518;50.930;5.344;2023-04-08T00:18:59;14.27;;;6.87;;
12900;SDS011;6518;50.930;5.344;2023-04-08T00:21:26;13.37;;;6.40;;
12900;SDS011;6518;50.930;5.344;2023-04-08T00:23:54;13.50;;;6.50;;
12900;SDS011;6518;50.930;5.344;2023-04-08T00:26:21;15.87;;;6.00;;
12900;SDS011;6518;50.930;5.344;2023-04-08T00:28:47;15.33;;;7.00;;
12900;SDS011;6518;50.930;5.344;2023-04-08T00:31:14;13.30;;;6.13;;
12900;SDS011;6518;50.930;5.344;2023-04-08T00:33:41;12.83;;;6.27;;
12900;SDS011;6518;50.930;5.344;2023-04-08T00:36:08;14.27;;;6.80;;
12900;SDS011;6518;50.930;5.344;2023-04-08T00:38:34;17.93;;;7.23;;
12900;SDS011;6518;50.930;5.344;2023-04-08T00:41:03;16.33;;;7.07;;
12900;SDS011;6518;50.930;5.344;2023-04-08T00:43:29;15.70;;;6.93;;
12900;SDS011;6518;50.930;5.344;2023-04-08T00:45:56;14.57;;;7.10;;
12900;SDS011;6518;50.930;5.344;2023-04-08T00:48:23;15.37;;;7.00;;
12900;SDS011;6518;50.930;5.344;2023-04-08T00:50:50;20.90;;;7.23;;
12900;SDS011;6518;50.930;5.344;2023-04-08T00:53:17;17.70;;;8.00;;
12900;SDS011;6518;50.930;5.344;2023-04-08T00:55:44;20.43;;;8.10;;
12900;SDS011;6518;50.930;5.344;2023-04-08T00:58:13;14.27;;;7.10;;
12900;SDS011;6518;50.930;5.344;2023-04-08T01:00:41;17.83;;;7.47;;
12900;SDS011;6518;50.930;5.344;2023-04-08T01:03:13;17.73;;;7.60;;
12900;SDS011;6518;50.930;5.344;2023-04-08T01:05:44;15.13;;;8.30;;
12900;SDS011;6518;50.930;5.344;2023-04-08T01:08:16;14.77;;;7.37;;
12900;SDS011;6518;50.930;5.344;2023-04-08T01:10:43;16.77;;;8.27;;
12900;SDS011;6518;50.930;5.344;2023-04-08T01:13:16;17.53;;;7.50;;
12900;SDS011;6518;50.930;5.344;2023-04-08T01:15:43;16.37;;;7.57;;
12900;SDS011;6518;50.930;5.344;2023-04-08T01:18:12;15.87;;;7.27;;
12900;SDS011;6518;50.930;5.344;2023-04-08T01:20:40;12.97;;;7.00;;
12900;SDS011;6518;50.930;5.344;2023-04-08T01:23:10;19.80;;;8.27;;
12900;SDS011;6518;50.930;5.344;2023-04-08T01:25:45;21.53;;;8.23;;
12900;SDS011;6518;50.930;5.344;2023-04-08T01:28:15;17.33;;;7.63;;
12900;SDS011;6518;50.930;5.344;2023-04-08T01:30:44;17.10;;;8.00;;
12900;SDS011;6518;50.930;5.344;2023-04-08T01:33:13;12.63;;;7.47;;
12900;SDS011;6518;50.930;5.344;2023-04-08T01:35:41;23.37;;;7.87;;
12900;SDS011;6518;50.930;5.344;2023-04-08T01:38:10;17.37;;;8.77;;
12900;SDS011;6518;50.930;5.344;2023-04-08T01:40:40;18.90;;;8.87;;
12900;SDS011;6518;50.930;5.344;2023-04-08T01:43:09;17.07;;;8.87;;
12900;SDS011;6518;50.930;5.344;2023-04-08T01:45:38;21.57;;;9.30;;
12900;SDS011;6518;50.930;5.344;2023-04-08T01:48:05;19.47;;;9.13;;
12900;SDS011;6518;50.930;5.344;2023-04-08T01:50:33;20.30;;;8.30;;
12900;SDS011;6518;50.930;5.344;2023-04-08T01:53:00;17.13;;;8.50;;
12900;SDS011;6518;50.930;5.344;2023-04-08T01:55:31;18.17;;;8.67;;
12900;SDS011;6518;50.930;5.344;2023-04-08T01:57:59;15.57;;;7.73;;
12900;SDS011;6518;50.930;5.344;2023-04-08T02:00:29;18.80;;;8.13;;
12900;SDS011;6518;50.930;5.344;2023-04-08T02:02:57;17.77;;;7.87;;
12900;SDS011;6518;50.930;5.344;2023-04-08T02:05:25;18.50;;;8.50;;
12900;SDS011;6518;50.930;5.344;2023-04-08T02:07:52;17.20;;;8.30;;
12900;SDS011;6518;50.930;5.344;2023-04-08T02:10:19;17.13;;;8.17;;
12900;SDS011;6518;50.930;5.344;2023-04-08T02:12:46;16.07;;;8.67;;
12900;SDS011;6518;50.930;5.344;2023-04-08T02:15:13;18.63;;;8.63;;
12900;SDS011;6518;50.930;5.344;2023-04-08T02:17:43;16.07;;;8.63;;
12900;SDS011;6518;50.930;5.344;2023-04-08T02:20:15;19.60;;;8.97;;
12900;SDS011;6518;50.930;5.344;2023-04-08T02:22:46;22.07;;;9.60;;
12900;SDS011;6518;50.930;5.344;2023-04-08T02:25:15;22.80;;;10.33;;
12900;SDS011;6518;50.930;5.344;2023-04-08T02:27:45;21.00;;;9.57;;
12900;SDS011;6518;50.930;5.344;2023-04-08T02:30:13;24.90;;;9.33;;
12900;SDS011;6518;50.930;5.344;2023-04-08T02:32:41;17.00;;;9.40;;
12900;SDS011;6518;50.930;5.344;2023-04-08T02:35:10;19.27;;;8.80;;
12900;SDS011;6518;50.930;5.344;2023-04-08T02:37:39;21.40;;;9.17;;
12900;SDS011;6518;50.930;5.344;2023-04-08T02:40:22;19.20;;;8.93;;
12900;SDS011;6518;50.930;5.344;2023-04-08T02:42:50;18.53;;;8.80;;
12900;SDS011;6518;50.930;5.344;2023-04-08T02:45:17;14.67;;;8.37;;
12900;SDS011;6518;50.930;5.344;2023-04-08T02:47:46;18.27;;;8.30;;
12900;SDS011;6518;50.930;5.344;2023-04-08T02:50:13;18.23;;;8.97;;
12900;SDS011;6518;50.930;5.344;2023-04-08T02:52:40;22.43;;;9.50;;
12900;SDS011;6518;50.930;5.344;2023-04-08T02:55:08;18.87;;;8.00;;
12900;SDS011;6518;50.930;5.344;2023-04-08T02:57:35;18.07;;;8.53;;
12900;SDS011;6518;50.930;5.344;2023-04-08T03:00:03;17.87;;;9.20;;
12900;SDS011;6518;50.930;5.344;2023-04-08T03:02:31;16.97;;;8.97;;
12900;SDS011;6518;50.930;5.344;2023-04-08T03:04:59;26.13;;;9.83;;
12900;SDS011;6518;50.930;5.344;2023-04-08T03:07:26;19.43;;;9.50;;
12900;SDS011;6518;50.930;5.344;2023-04-08T03:09:53;22.10;;;9.03;;
12900;SDS011;6518;50.930;5.344;2023-04-08T03:12:20;23.53;;;10.00;;
12900;SDS011;6518;50.930;5.344;2023-04-08T03:14:47;17.67;;;10.40;;
12900;SDS011;6518;50.930;5.344;2023-04-08T03:17:14;22.43;;;9.43;;
12900;SDS011;6518;50.930;5.344;2023-04-08T03:19:41;21.77;;;10.00;;
12900;SDS011;6518;50.930;5.344;2023-04-08T03:22:09;19.93;;;10.57;;
12900;SDS011;6518;50.930;5.344;2023-04-08T03:24:36;24.77;;;10.00;;
12900;SDS011;6518;50.930;5.344;2023-04-08T03:27:03;21.30;;;9.97;;
12900;SDS011;6518;50.930;5.344;2023-04-08T03:29:30;17.00;;;10.70;;
12900;SDS011;6518;50.930;5.344;2023-04-08T03:31:56;20.33;;;10.57;;
12900;SDS011;6518;50.930;5.344;2023-04-08T03:34:23;22.37;;;10.90;;
12900;SDS011;6518;50.930;5.344;2023-04-08T03:36:50;21.13;;;11.70;;
12900;SDS011;6518;50.930;5.344;2023-04-08T03:39:18;23.17;;;10.33;;
12900;SDS011;6518;50.930;5.344;2023-04-08T03:41:45;22.23;;;10.87;;
12900;SDS011;6518;50.930;5.344;2023-04-08T03:44:12;22.77;;;11.30;;
12900;SDS011;6518;50.930;5.344;2023-04-08T03:46:38;19.70;;;11.37;;
12900;SDS011;6518;50.930;5.344;2023-04-08T03:49:05;25.57;;;11.93;;
12900;SDS011;6518;50.930;5.344;2023-04-08T03:51:32;23.63;;;10.53;;
12900;SDS011;6518;50.930;5.344;2023-04-08T03:53:59;25.27;;;10.30;;
12900;SDS011;6518;50.930;5.344;2023-04-08T03:56:27;22.77;;;11.20;;
12900;SDS011;6518;50.930;5.344;2023-04-08T03:58:54;25.93;;;10.77;;
12900;SDS011;6518;50.930;5.344;2023-04-08T04:01:21;24.20;;;11.10;;
12900;SDS011;6518;50.930;5.344;2023-04-08T04:03:47;19.17;;;10.70;;
12900;SDS011;6518;50.930;5.344;2023-04-08T04:06:14;22.10;;;11.67;;
12900;SDS011;6518;50.930;5.344;2023-04-08T04:08:41;23.67;;;11.43;;
12900;SDS011;6518;50.930;5.344;2023-04-08T04:11:08;25.33;;;12.47;;
12900;SDS011;6518;50.930;5.344;2023-04-08T04:13:36;20.27;;;12.60;;
12900;SDS011;6518;50.930;5.344;2023-04-08T04:16:03;27.93;;;14.23;;
12900;SDS011;6518;50.930;5.344;2023-04-08T04:18:30;24.33;;;13.23;;
12900;SDS011;6518;50.930;5.344;2023-04-08T04:20:57;29.87;;;14.30;;
12900;SDS011;6518;50.930;5.344;2023-04-08T04:23:24;32.43;;;15.13;;
12900;SDS011;6518;50.930;5.344;2023-04-08T04:25:51;21.67;;;14.53;;
12900;SDS011;6518;50.930;5.344;2023-04-08T04:28:18;28.80;;;13.90;;
12900;SDS011;6518;50.930;5.344;2023-04-08T04:30:46;23.03;;;13.60;;
12900;SDS011;6518;50.930;5.344;2023-04-08T04:33:13;27.87;;;13.47;;
12900;SDS011;6518;50.930;5.344;2023-04-08T04:35:40;25.33;;;13.20;;
12900;SDS011;6518;50.930;5.344;2023-04-08T04:38:07;30.47;;;14.13;;
12900;SDS011;6518;50.930;5.344;2023-04-08T04:40:36;25.67;;;14.13;;
12900;SDS011;6518;50.930;5.344;2023-04-08T04:43:03;28.80;;;14.80;;
12900;SDS011;6518;50.930;5.344;2023-04-08T04:45:30;26.37;;;14.83;;
12900;SDS011;6518;50.930;5.344;2023-04-08T04:47:58;30.77;;;14.30;;
12900;SDS011;6518;50.930;5.344;2023-04-08T04:50:25;29.60;;;14.17;;
12900;SDS011;6518;50.930;5.344;2023-04-08T04:52:51;27.03;;;14.73;;
12900;SDS011;6518;50.930;5.344;2023-04-08T04:55:18;25.07;;;13.67;;
12900;SDS011;6518;50.930;5.344;2023-04-08T04:57:46;28.77;;;14.30;;
12900;SDS011;6518;50.930;5.344;2023-04-08T05:00:13;37.00;;;14.97;;
12900;SDS011;6518;50.930;5.344;2023-04-08T05:02:41;38.43;;;15.70;;
12900;SDS011;6518;50.930;5.344;2023-04-08T05:05:09;31.87;;;17.43;;
12900;SDS011;6518;50.930;5.344;2023-04-08T05:07:36;32.53;;;16.43;;
12900;SDS011;6518;50.930;5.344;2023-04-08T05:10:03;33.70;;;17.67;;
12900;SDS011;6518;50.930;5.344;2023-04-08T05:12:31;24.90;;;15.57;;
12900;SDS011;6518;50.930;5.344;2023-04-08T05:14:58;26.90;;;15.10;;
12900;SDS011;6518;50.930;5.344;2023-04-08T05:17:24;34.67;;;18.23;;
12900;SDS011;6518;50.930;5.344;2023-04-08T05:19:51;34.10;;;18.70;;
12900;SDS011;6518;50.930;5.344;2023-04-08T05:22:19;36.57;;;21.47;;
12900;SDS011;6518;50.930;5.344;2023-04-08T05:24:46;40.47;;;21.50;;
12900;SDS011;6518;50.930;5.344;2023-04-08T05:27:13;42.13;;;23.00;;
12900;SDS011;6518;50.930;5.344;2023-04-08T05:29:40;39.20;;;24.63;;
12900;SDS011;6518;50.930;5.344;2023-04-08T05:32:07;41.37;;;23.53;;
12900;SDS011;6518;50.930;5.344;2023-04-08T05:34:33;39.27;;;23.37;;
12900;SDS011;6518;50.930;5.344;2023-04-08T05:37:00;45.10;;;25.97;;
12900;SDS011;6518;50.930;5.344;2023-04-08T05:39:28;50.73;;;25.47;;
12900;SDS011;6518;50.930;5.344;2023-04-08T05:41:55;45.57;;;25.93;;
12900;SDS011;6518;50.930;5.344;2023-04-08T05:44:22;44.23;;;23.60;;
12900;SDS011;6518;50.930;5.344;2023-04-08T05:46:48;44.20;;;24.20;;
12900;SDS011;6518;50.930;5.344;2023-04-08T05:49:15;43.03;;;23.50;;
12900;SDS011;6518;50.930;5.344;2023-04-08T05:51:42;48.97;;;25.90;;
12900;SDS011;6518;50.930;5.344;2023-04-08T05:54:09;43.37;;;23.80;;
12900;SDS011;6518;50.930;5.344;2023-04-08T05:56:37;45.27;;;25.37;;
12900;SDS011;6518;50.930;5.344;2023-04-08T05:59:04;44.50;;;24.83;;
12900;SDS011;6518;50.930;5.344;2023-04-08T06:01:31;45.53;;;24.80;;
12900;SDS011;6518;50.930;5.344;2023-04-08T06:03:57;42.93;;;23.87;;
12900;SDS011;6518;50.930;5.344;2023-04-08T06:06:24;47.20;;;26.23;;
12900;SDS011;6518;50.930;5.344;2023-04-08T06:08:51;46.73;;;25.33;;
12900;SDS011;6518;50.930;5.344;2023-04-08T06:11:18;41.53;;;24.10;;
12900;SDS011;6518;50.930;5.344;2023-04-08T06:13:46;40.03;;;22.87;;
12900;SDS011;6518;50.930;5.344;2023-04-08T06:16:13;39.90;;;23.27;;
12900;SDS011;6518;50.930;5.344;2023-04-08T06:18:42;40.13;;;22.90;;
12900;SDS011;6518;50.930;5.344;2023-04-08T06:21:09;42.40;;;24.60;;
12900;SDS011;6518;50.930;5.344;2023-04-08T06:23:36;41.83;;;23.43;;
12900;SDS011;6518;50.930;5.344;2023-04-08T06:26:03;40.13;;;24.07;;
12900;SDS011;6518;50.930;5.344;2023-04-08T06:28:30;40.80;;;23.73;;
12900;SDS011;6518;50.930;5.344;2023-04-08T06:30:58;41.47;;;22.20;;
12900;SDS011;6518;50.930;5.344;2023-04-08T06:33:25;42.30;;;22.27;;
12900;SDS011;6518;50.930;5.344;2023-04-08T06:35:59;43.67;;;22.80;;
12900;SDS011;6518;50.930;5.344;2023-04-08T06:38:27;41.50;;;23.33;;
12900;SDS011;6518;50.930;5.344;2023-04-08T06:40:54;43.03;;;22.30;;
12900;SDS011;6518;50.930;5.344;2023-04-08T06:43:21;39.73;;;22.60;;
12900;SDS011;6518;50.930;5.344;2023-04-08T06:45:48;40.90;;;22.53;;
12900;SDS011;6518;50.930;5.344;2023-04-08T06:48:17;43.90;;;23.33;;
12900;SDS011;6518;50.930;5.344;2023-04-08T06:50:44;40.77;;;23.90;;
12900;SDS011;6518;50.930;5.344;2023-04-08T06:53:11;48.53;;;24.20;;
12900;SDS011;6518;50.930;5.344;2023-04-08T06:55:38;44.17;;;24.70;;
12900;SDS011;6518;50.930;5.344;2023-04-08T06:58:05;42.87;;;24.17;;
12900;SDS011;6518;50.930;5.344;2023-04-08T07:00:32;45.20;;;23.00;;
12900;SDS011;6518;50.930;5.344;2023-04-08T07:02:59;42.93;;;23.03;;
12900;SDS011;6518;50.930;5.344;2023-04-08T07:05:27;46.90;;;26.73;;
12900;SDS011;6518;50.930;5.344;2023-04-08T07:07:54;49.53;;;26.97;;
12900;SDS011;6518;50.930;5.344;2023-04-08T07:10:20;45.73;;;25.77;;
12900;SDS011;6518;50.930;5.344;2023-04-08T07:12:47;47.83;;;26.07;;
12900;SDS011;6518;50.930;5.344;2023-04-08T07:15:15;41.40;;;25.87;;
12900;SDS011;6518;50.930;5.344;2023-04-08T07:17:42;44.83;;;26.17;;
12900;SDS011;6518;50.930;5.344;2023-04-08T07:20:09;47.07;;;25.87;;
12900;SDS011;6518;50.930;5.344;2023-04-08T07:22:39;40.23;;;24.90;;
12900;SDS011;6518;50.930;5.344;2023-04-08T07:25:06;46.63;;;26.90;;
12900;SDS011;6518;50.930;5.344;2023-04-08T07:27:33;47.23;;;27.73;;
12900;SDS011;6518;50.930;5.344;2023-04-08T07:30:00;46.27;;;26.90;;
12900;SDS011;6518;50.930;5.344;2023-04-08T07:32:27;47.63;;;25.70;;
12900;SDS011;6518;50.930;5.344;2023-04-08T07:34:54;40.47;;;26.70;;
12900;SDS011;6518;50.930;5.344;2023-04-08T07:37:21;44.90;;;25.80;;
12900;SDS011;6518;50.930;5.344;2023-04-08T07:39:49;44.57;;;25.10;;
12900;SDS011;6518;50.930;5.344;2023-04-08T07:42:16;44.23;;;27.20;;
12900;SDS011;6518;50.930;5.344;2023-04-08T07:44:42;43.77;;;26.67;;
12900;SDS011;6518;50.930;5.344;2023-04-08T07:47:10;38.37;;;24.57;;
12900;SDS011;6518;50.930;5.344;2023-04-08T07:49:37;39.17;;;24.97;;
12900;SDS011;6518;50.930;5.344;2023-04-08T07:52:04;39.40;;;25.93;;
12900;SDS011;6518;50.930;5.344;2023-04-08T07:54:31;43.23;;;24.77;;
12900;SDS011;6518;50.930;5.344;2023-04-08T07:56:59;38.63;;;24.30;;
12900;SDS011;6518;50.930;5.344;2023-04-08T07:59:26;36.83;;;23.53;;
12900;SDS011;6518;50.930;5.344;2023-04-08T08:01:54;33.83;;;22.33;;
12900;SDS011;6518;50.930;5.344;2023-04-08T08:04:20;34.03;;;23.83;;
12900;SDS011;6518;50.930;5.344;2023-04-08T08:06:49;36.50;;;23.23;;
12900;SDS011;6518;50.930;5.344;2023-04-08T08:09:16;30.63;;;20.33;;
12900;SDS011;6518;50.930;5.344;2023-04-08T08:11:43;32.73;;;20.97;;
12900;SDS011;6518;50.930;5.344;2023-04-08T08:14:12;28.83;;;20.73;;
12900;SDS011;6518;50.930;5.344;2023-04-08T08:16:40;29.23;;;21.67;;
12900;SDS011;6518;50.930;5.344;2023-04-08T08:19:08;31.67;;;22.63;;
12900;SDS011;6518;50.930;5.344;2023-04-08T08:21:36;30.07;;;20.77;;
12900;SDS011;6518;50.930;5.344;2023-04-08T08:24:03;31.50;;;21.40;;
12900;SDS011;6518;50.930;5.344;2023-04-08T08:26:30;32.97;;;23.60;;
12900;SDS011;6518;50.930;5.344;2023-04-08T08:28:59;27.03;;;19.93;;
12900;SDS011;6518;50.930;5.344;2023-04-08T08:31:31;25.87;;;20.73;;
12900;SDS011;6518;50.930;5.344;2023-04-08T08:33:59;26.10;;;19.97;;
12900;SDS011;6518;50.930;5.344;2023-04-08T08:36:26;25.07;;;17.87;;
12900;SDS011;6518;50.930;5.344;2023-04-08T08:38:53;31.33;;;19.80;;
12900;SDS011;6518;50.930;5.344;2023-04-08T08:41:20;31.90;;;21.33;;
12900;SDS011;6518;50.930;5.344;2023-04-08T08:43:47;29.17;;;20.87;;
12900;SDS011;6518;50.930;5.344;2023-04-08T08:46:14;33.37;;;22.13;;
12900;SDS011;6518;50.930;5.344;2023-04-08T08:48:45;32.13;;;22.43;;
12900;SDS011;6518;50.930;5.344;2023-04-08T08:51:12;28.40;;;21.30;;
12900;SDS011;6518;50.930;5.344;2023-04-08T08:53:39;27.70;;;19.27;;
12900;SDS011;6518;50.930;5.344;2023-04-08T08:56:09;21.20;;;16.20;;
12900;SDS011;6518;50.930;5.344;2023-04-08T08:58:36;25.43;;;17.20;;
12900;SDS011;6518;50.930;5.344;2023-04-08T09:04:13;18.30;;;14.67;;
12900;SDS011;6518;50.930;5.344;2023-04-08T09:06:42;17.20;;;12.83;;
12900;SDS011;6518;50.930;5.344;2023-04-08T09:09:09;15.67;;;12.17;;
12900;SDS011;6518;50.930;5.344;2023-04-08T09:11:37;18.57;;;14.53;;
12900;SDS011;6518;50.930;5.344;2023-04-08T09:14:04;16.07;;;12.47;;
12900;SDS011;6518;50.930;5.344;2023-04-08T09:16:42;15.87;;;12.83;;
12900;SDS011;6518;50.930;5.344;2023-04-08T09:19:09;13.07;;;11.67;;
12900;SDS011;6518;50.930;5.344;2023-04-08T09:21:39;19.23;;;13.47;;
12900;SDS011;6518;50.930;5.344;2023-04-08T09:24:06;18.30;;;13.43;;
12900;SDS011;6518;50.930;5.344;2023-04-08T09:26:33;16.57;;;12.23;;
12900;SDS011;6518;50.930;5.344;2023-04-08T09:29:01;14.82;;;12.35;;
12900;SDS011;6518;50.930;5.344;2023-04-08T09:31:30;16.90;;;12.80;;
12900;SDS011;6518;50.930;5.344;2023-04-08T09:33:59;17.40;;;12.30;;
12900;SDS011;6518;50.930;5.344;2023-04-08T09:36:34;15.40;;;12.20;;
12900;SDS011;6518;50.930;5.344;2023-04-08T09:39:02;12.93;;;10.73;;
12900;SDS011;6518;50.930;5.344;2023-04-08T09:41:28;13.77;;;11.30;;
12900;SDS011;6518;50.930;5.344;2023-04-08T09:44:00;14.63;;;12.13;;
12900;SDS011;6518;50.930;5.344;2023-04-08T09:46:31;13.35;;;10.10;;
12900;SDS011;6518;50.930;5.344;2023-04-08T09:49:00;15.20;;;11.43;;
12900;SDS011;6518;50.930;5.344;2023-04-08T09:51:31;15.87;;;11.60;;
12900;SDS011;6518;50.930;5.344;2023-04-08T09:54:05;16.17;;;11.93;;
12900;SDS011;6518;50.930;5.344;2023-04-08T09:56:40;18.57;;;13.63;;
12900;SDS011;6518;50.930;5.344;2023-04-08T09:59:11;20.87;;;14.77;;
12900;SDS011;6518;50.930;5.344;2023-04-08T10:01:43;17.20;;;14.03;;
12900;SDS011;6518;50.930;5.344;2023-04-08T10:04:13;22.07;;;15.47;;
12900;SDS011;6518;50.930;5.344;2023-04-08T10:06:44;17.83;;;14.60;;
12900;SDS011;6518;50.930;5.344;2023-04-08T10:09:19;19.77;;;15.27;;
12900;SDS011;6518;50.930;5.344;2023-04-08T10:11:47;25.53;;;17.30;;
12900;SDS011;6518;50.930;5.344;2023-04-08T10:14:14;23.50;;;16.93;;
12900;SDS011;6518;50.930;5.344;2023-04-08T10:16:41;26.47;;;16.53;;
12900;SDS011;6518;50.930;5.344;2023-04-08T10:22:14;24.60;;;17.67;;
12900;SDS011;6518;50.930;5.344;2023-04-08T10:25:30;21.80;;;16.50;;
12900;SDS011;6518;50.930;5.344;2023-04-08T10:27:59;24.67;;;18.00;;
12900;SDS011;6518;50.930;5.344;2023-04-08T10:30:42;24.27;;;16.97;;
12900;SDS011;6518;50.930;5.344;2023-04-08T10:33:10;26.93;;;18.10;;
12900;SDS011;6518;50.930;5.344;2023-04-08T10:35:40;25.67;;;17.70;;
12900;SDS011;6518;50.930;5.344;2023-04-08T10:38:10;24.60;;;18.47;;
12900;SDS011;6518;50.930;5.344;2023-04-08T10:40:39;26.20;;;17.40;;
12900;SDS011;6518;50.930;5.344;2023-04-08T10:43:07;23.47;;;17.43;;
12900;SDS011;6518;50.930;5.344;2023-04-08T10:45:35;25.47;;;17.90;;
12900;SDS011;6518;50.930;5.344;2023-04-08T10:48:12;25.52;;;16.42;;
12900;SDS011;6518;50.930;5.344;2023-04-08T10:50:41;27.40;;;18.50;;
12900;SDS011;6518;50.930;5.344;2023-04-08T10:53:09;26.57;;;18.80;;
12900;SDS011;6518;50.930;5.344;2023-04-08T10:55:36;26.80;;;18.65;;
12900;SDS011;6518;50.930;5.344;2023-04-08T10:58:08;25.42;;;17.65;;
12900;SDS011;6518;50.930;5.344;2023-04-08T11:00:37;22.85;;;16.52;;
12900;SDS011;6518;50.930;5.344;2023-04-08T11:03:05;25.77;;;18.40;;
12900;SDS011;6518;50.930;5.344;2023-04-08T11:05:33;26.03;;;16.97;;
12900;SDS011;6518;50.930;5.344;2023-04-08T11:08:02;25.63;;;16.90;;
12900;SDS011;6518;50.930;5.344;2023-04-08T11:10:29;21.90;;;16.55;;
12900;SDS011;6518;50.930;5.344;2023-04-08T11:12:57;19.90;;;15.07;;
12900;SDS011;6518;50.930;5.344;2023-04-08T11:15:25;21.20;;;14.98;;
12900;SDS011;6518;50.930;5.344;2023-04-08T11:17:53;18.43;;;14.63;;
12900;SDS011;6518;50.930;5.344;2023-04-08T11:20:20;17.33;;;14.10;;
12900;SDS011;6518;50.930;5.344;2023-04-08T11:22:48;20.40;;;15.90;;
12900;SDS011;6518;50.930;5.344;2023-04-08T11:25:15;20.27;;;15.35;;
12900;SDS011;6518;50.930;5.344;2023-04-08T11:27:43;20.55;;;15.05;;
12900;SDS011;6518;50.930;5.344;2023-04-08T11:30:10;18.77;;;14.48;;
12900;SDS011;6518;50.930;5.344;2023-04-08T11:32:39;16.83;;;14.10;;
12900;SDS011;6518;50.930;5.344;2023-04-08T11:35:06;16.20;;;13.80;;
12900;SDS011;6518;50.930;5.344;2023-04-08T11:37:37;19.35;;;14.55;;
12900;SDS011;6518;50.930;5.344;2023-04-08T11:40:08;18.55;;;14.45;;
12900;SDS011;6518;50.930;5.344;2023-04-08T11:42:35;16.65;;;13.88;;
12900;SDS011;6518;50.930;5.344;2023-04-08T11:45:08;18.35;;;14.48;;
12900;SDS011;6518;50.930;5.344;2023-04-08T11:47:37;17.13;;;13.83;;
12900;SDS011;6518;50.930;5.344;2023-04-08T11:50:06;17.03;;;13.27;;
12900;SDS011;6518;50.930;5.344;2023-04-08T11:52:45;15.35;;;12.73;;
12900;SDS011;6518;50.930;5.344;2023-04-08T11:55:20;19.00;;;14.53;;
12900;SDS011;6518;50.930;5.344;2023-04-08T11:57:48;16.67;;;14.45;;
12900;SDS011;6518;50.930;5.344;2023-04-08T12:00:16;16.08;;;13.60;;
12900;SDS011;6518;50.930;5.344;2023-04-08T12:02:44;15.80;;;13.80;;
12900;SDS011;6518;50.930;5.344;2023-04-08T12:05:13;18.08;;;13.40;;
12900;SDS011;6518;50.930;5.344;2023-04-08T12:07:40;15.85;;;13.18;;
12900;SDS011;6518;50.930;5.344;2023-04-08T12:10:07;15.93;;;12.85;;
12900;SDS011;6518;50.930;5.344;2023-04-08T12:12:34;15.15;;;13.00;;
12900;SDS011;6518;50.930;5.344;2023-04-08T12:15:01;15.68;;;12.23;;
12900;SDS011;6518;50.930;5.344;2023-04-08T12:17:28;14.98;;;12.63;;
12900;SDS011;6518;50.930;5.344;2023-04-08T12:19:55;15.88;;;13.02;;
12900;SDS011;6518;50.930;5.344;2023-04-08T12:22:23;15.98;;;12.93;;
12900;SDS011;6518;50.930;5.344;2023-04-08T12:24:50;15.23;;;12.02;;
12900;SDS011;6518;50.930;5.344;2023-04-08T12:27:17;14.27;;;12.25;;
12900;SDS011;6518;50.930;5.344;2023-04-08T12:29:44;14.55;;;11.68;;
12900;SDS011;6518;50.930;5.344;2023-04-08T12:32:11;14.48;;;12.15;;
12900;SDS011;6518;50.930;5.344;2023-04-08T12:34:38;16.90;;;14.18;;
12900;SDS011;6518;50.930;5.344;2023-04-08T12:37:05;14.80;;;13.13;;
12900;SDS011;6518;50.930;5.344;2023-04-08T12:39:33;16.10;;;13.32;;
12900;SDS011;6518;50.930;5.344;2023-04-08T12:42:00;15.27;;;12.52;;
12900;SDS011;6518;50.930;5.344;2023-04-08T12:44:27;14.88;;;12.40;;
12900;SDS011;6518;50.930;5.344;2023-04-08T12:46:54;16.73;;;13.07;;
12900;SDS011;6518;50.930;5.344;2023-04-08T12:49:22;15.52;;;12.73;;
12900;SDS011;6518;50.930;5.344;2023-04-08T12:51:49;15.95;;;13.43;;
12900;SDS011;6518;50.930;5.344;2023-04-08T12:54:15;15.40;;;13.38;;
12900;SDS011;6518;50.930;5.344;2023-04-08T12:56:44;15.55;;;13.07;;
12900;SDS011;6518;50.930;5.344;2023-04-08T12:59:12;13.40;;;12.00;;
12900;SDS011;6518;50.930;5.344;2023-04-08T13:01:39;16.10;;;13.18;;
12900;SDS011;6518;50.930;5.344;2023-04-08T13:04:06;15.98;;;12.95;;
12900;SDS011;6518;50.930;5.344;2023-04-08T13:06:33;13.43;;;11.43;;
12900;SDS011;6518;50.930;5.344;2023-04-08T13:09:00;17.30;;;13.50;;
12900;SDS011;6518;50.930;5.344;2023-04-08T13:11:26;16.60;;;12.27;;
12900;SDS011;6518;50.930;5.344;2023-04-08T13:13:55;16.30;;;13.13;;
12900;SDS011;6518;50.930;5.344;2023-04-08T13:16:21;16.30;;;13.38;;
12900;SDS011;6518;50.930;5.344;2023-04-08T13:18:48;13.68;;;11.75;;
12900;SDS011;6518;50.930;5.344;2023-04-08T13:21:16;17.25;;;12.75;;
12900;SDS011;6518;50.930;5.344;2023-04-08T13:23:43;15.02;;;12.85;;
12900;SDS011;6518;50.930;5.344;2023-04-08T13:26:10;14.85;;;11.20;;
12900;SDS011;6518;50.930;5.344;2023-04-08T13:28:37;13.90;;;11.55;;
12900;SDS011;6518;50.930;5.344;2023-04-08T13:31:05;12.20;;;10.88;;
12900;SDS011;6518;50.930;5.344;2023-04-08T13:33:32;14.48;;;11.23;;
12900;SDS011;6518;50.930;5.344;2023-04-08T13:35:59;13.68;;;11.40;;
12900;SDS011;6518;50.930;5.344;2023-04-08T13:38:26;15.52;;;12.23;;
12900;SDS011;6518;50.930;5.344;2023-04-08T13:40:53;14.90;;;12.32;;
12900;SDS011;6518;50.930;5.344;2023-04-08T13:43:20;14.68;;;11.65;;
12900;SDS011;6518;50.930;5.344;2023-04-08T13:45:46;12.88;;;10.70;;
12900;SDS011;6518;50.930;5.344;2023-04-08T13:48:14;13.88;;;11.68;;
12900;SDS011;6518;50.930;5.344;2023-04-08T13:50:41;14.05;;;11.32;;
12900;SDS011;6518;50.930;5.344;2023-04-08T13:53:08;14.35;;;11.57;;
12900;SDS011;6518;50.930;5.344;2023-04-08T13:55:35;14.15;;;11.73;;
12900;SDS011;6518;50.930;5.344;2023-04-08T13:58:02;13.27;;;11.57;;
12900;SDS011;6518;50.930;5.344;2023-04-08T14:00:29;13.35;;;11.88;;
12900;SDS011;6518;50.930;5.344;2023-04-08T14:02:56;13.68;;;11.82;;
12900;SDS011;6518;50.930;5.344;2023-04-08T14:05:25;12.95;;;11.43;;
12900;SDS011;6518;50.930;5.344;2023-04-08T14:07:52;12.52;;;11.23;;
12900;SDS011;6518;50.930;5.344;2023-04-08T14:10:18;12.93;;;11.63;;
12900;SDS011;6518;50.930;5.344;2023-04-08T14:12:45;14.02;;;10.85;;
12900;SDS011;6518;50.930;5.344;2023-04-08T14:15:12;12.63;;;11.25;;
12900;SDS011;6518;50.930;5.344;2023-04-08T14:17:39;11.60;;;10.38;;
12900;SDS011;6518;50.930;5.344;2023-04-08T14:20:06;12.18;;;10.88;;
12900;SDS011;6518;50.930;5.344;2023-04-08T14:22:35;13.27;;;11.63;;
12900;SDS011;6518;50.930;5.344;2023-04-08T14:25:02;13.13;;;11.48;;
12900;SDS011;6518;50.930;5.344;2023-04-08T14:27:29;11.48;;;10.27;;
12900;SDS011;6518;50.930;5.344;2023-04-08T14:29:56;12.85;;;11.43;;
12900;SDS011;6518;50.930;5.344;2023-04-08T14:32:23;16.38;;;11.60;;
12900;SDS011;6518;50.930;5.344;2023-04-08T14:34:49;12.98;;;11.23;;
12900;SDS011;6518;50.930;5.344;2023-04-08T14:37:16;11.70;;;10.35;;
12900;SDS011;6518;50.930;5.344;2023-04-08T14:39:44;15.65;;;12.27;;
12900;SDS011;6518;50.930;5.344;2023-04-08T14:42:11;14.32;;;12.82;;
12900;SDS011;6518;50.930;5.344;2023-04-08T14:44:40;15.40;;;13.32;;
12900;SDS011;6518;50.930;5.344;2023-04-08T14:47:08;14.43;;;12.82;;
12900;SDS011;6518;50.930;5.344;2023-04-08T14:49:36;14.30;;;12.50;;